sensor_id;sensor_type;location;lat;lon;timestamp;pressure;altitude;pressure_sealevel;temperature;humidity
32933;BME280;19444;50.518;10.870;2023-01-29T00:01:39;97629.81;;;-3.88;100.00
32933;BME280;19444;50.518;10.870;2023-01-29T00:04:37;97632.09;;;-4.43;100.00
32933;BME280;19444;50.518;10.870;2023-01-29T00:07:33;97634.72;;;-4.58;100.00
32933;BME280;19444;50.518;10.870;2023-01-29T00:10:30;97622.50;;;-4.57;100.00
32933;BME280;19444;50.518;10.870;2023-01-29T00:13:27;97623.13;;;-4.70;100.00
32933;BME280;19444;50.518;10.870;2023-01-29T00:16:24;97611.34;;;-4.44;100.00
32933;BME280;19444;50.518;10.870;2023-01-29T00:19:21;97608.13;;;-4.25;100.00
32933;BME280;19444;50.518;10.870;2023-01-29T00:22:17;97600.56;;;-4.56;100.00
32933;BME280;19444;50.518;10.870;2023-01-29T00:25:14;97604.22;;;-4.72;100.00
32933;BME280;19444;50.518;10.870;2023-01-29T00:28:12;97606.25;;;-4.67;100.00
32933;BME280;19444;50.518;10.870;2023-01-29T00:31:10;97591.53;;;-4.53;100.00
32933;BME280;19444;50.518;10.870;2023-01-29T00:34:07;97586.50;;;-4.34;100.00
32933;BME280;19444;50.518;10.870;2023-01-29T00:37:04;97589.28;;;-4.20;100.00
32933;BME280;19444;50.518;10.870;2023-01-29T00:40:04;97585.13;;;-4.51;100.00
32933;BME280;19444;50.518;10.870;2023-01-29T00:43:01;97575.69;;;-4.67;100.00
32933;BME280;19444;50.518;10.870;2023-01-29T00:46:16;97591.31;;;-4.73;100.00
32933;BME280;19444;50.518;10.870;2023-01-29T00:49:13;97587.38;;;-4.84;100.00
32933;BME280;19444;50.518;10.870;2023-01-29T00:52:10;97579.66;;;-4.35;100.00
32933;BME280;19444;50.518;10.870;2023-01-29T00:55:22;97575.66;;;-4.52;100.00
32933;BME280;19444;50.518;10.870;2023-01-29T00:58:19;97561.22;;;-4.48;100.00
32933;BME280;19444;50.518;10.870;2023-01-29T01:01:18;97577.72;;;-4.47;100.00
32933;BME280;19444;50.518;10.870;2023-01-29T01:04:38;97578.28;;;-4.31;100.00
32933;BME280;19444;50.518;10.870;2023-01-29T01:07:35;97589.44;;;-4.43;100.00
32933;BME280;19444;50.518;10.870;2023-01-29T01:10:32;97579.69;;;-4.49;100.00
32933;BME280;19444;50.518;10.870;2023-01-29T01:13:31;97593.59;;;-4.49;100.00
32933;BME280;19444;50.518;10.870;2023-01-29T01:16:28;97578.69;;;-4.48;100.00
32933;BME280;19444;50.518;10.870;2023-01-29T01:19:24;97578.59;;;-4.40;100.00
32933;BME280;19444;50.518;10.870;2023-01-29T01:22:21;97578.69;;;-4.70;100.00
32933;BME280;19444;50.518;10.870;2023-01-29T01:25:18;97585.78;;;-4.64;100.00
32933;BME280;19444;50.518;10.870;2023-01-29T01:28:15;97577.78;;;-4.77;100.00
32933;BME280;19444;50.518;10.870;2023-01-29T01:31:13;97570.63;;;-4.90;100.00
32933;BME280;19444;50.518;10.870;2023-01-29T01:34:10;97577.66;;;-4.54;100.00
32933;BME280;19444;50.518;10.870;2023-01-29T01:37:06;97568.19;;;-4.55;100.00
32933;BME280;19444;50.518;10.870;2023-01-29T01:40:06;97565.03;;;-4.29;100.00
32933;BME280;19444;50.518;10.870;2023-01-29T01:43:08;97561.97;;;-4.33;100.00
32933;BME280;19444;50.518;10.870;2023-01-29T01:46:05;97553.75;;;-4.30;100.00
32933;BME280;19444;50.518;10.870;2023-01-29T01:49:08;97565.81;;;-4.50;100.00
32933;BME280;19444;50.518;10.870;2023-01-29T01:52:07;97555.91;;;-4.54;100.00
32933;BME280;19444;50.518;10.870;2023-01-29T01:55:04;97552.72;;;-4.71;100.00
32933;BME280;19444;50.518;10.870;2023-01-29T01:58:11;97550.22;;;-4.94;100.00
32933;BME280;19444;50.518;10.870;2023-01-29T02:01:11;97547.75;;;-4.66;100.00
32933;BME280;19444;50.518;10.870;2023-01-29T02:04:28;97546.47;;;-4.92;100.00
32933;BME280;19444;50.518;10.870;2023-01-29T02:07:46;97542.00;;;-4.76;100.00
32933;BME280;19444;50.518;10.870;2023-01-29T02:11:04;97535.91;;;-4.62;100.00
32933;BME280;19444;50.518;10.870;2023-01-29T02:14:01;97529.94;;;-4.56;100.00
32933;BME280;19444;50.518;10.870;2023-01-29T02:17:00;97541.44;;;-4.72;100.00
32933;BME280;19444;50.518;10.870;2023-01-29T02:20:17;97536.53;;;-4.96;100.00
32933;BME280;19444;50.518;10.870;2023-01-29T02:27:02;97527.94;;;-5.11;100.00
32933;BME280;19444;50.518;10.870;2023-01-29T02:33:29;97537.72;;;-4.63;100.00
32933;BME280;19444;50.518;10.870;2023-01-29T02:36:50;97546.41;;;-4.77;100.00
32933;BME280;19444;50.518;10.870;2023-01-29T02:40:01;97556.03;;;-5.13;100.00
32933;BME280;19444;50.518;10.870;2023-01-29T02:43:08;97556.03;;;-5.13;100.00
32933;BME280;19444;50.518;10.870;2023-01-29T02:52:43;97567.56;;;-4.57;100.00
32933;BME280;19444;50.518;10.870;2023-01-29T02:58:56;97561.06;;;-4.61;100.00
32933;BME280;19444;50.518;10.870;2023-01-29T03:01:58;97565.69;;;-4.99;100.00
32933;BME280;19444;50.518;10.870;2023-01-29T03:05:00;97548.41;;;-4.58;100.00
32933;BME280;19444;50.518;10.870;2023-01-29T03:08:05;97543.06;;;-4.71;100.00
32933;BME280;19444;50.518;10.870;2023-01-29T03:11:05;97544.03;;;-4.93;100.00
32933;BME280;19444;50.518;10.870;2023-01-29T03:14:05;97559.31;;;-4.75;100.00
32933;BME280;19444;50.518;10.870;2023-01-29T03:17:04;97577.75;;;-4.62;100.00
32933;BME280;19444;50.518;10.870;2023-01-29T03:20:05;97568.91;;;-4.82;100.00
32933;BME280;19444;50.518;10.870;2023-01-29T03:23:10;97566.06;;;-4.66;100.00
32933;BME280;19444;50.518;10.870;2023-01-29T03:26:09;97581.47;;;-4.71;100.00
32933;BME280;19444;50.518;10.870;2023-01-29T03:29:25;97585.03;;;-4.58;100.00
32933;BME280;19444;50.518;10.870;2023-01-29T03:32:41;97579.06;;;-4.51;100.00
32933;BME280;19444;50.518;10.870;2023-01-29T03:36:09;97578.19;;;-4.95;100.00
32933;BME280;19444;50.518;10.870;2023-01-29T03:39:09;97585.00;;;-4.79;100.00
32933;BME280;19444;50.518;10.870;2023-01-29T03:45:29;97593.75;;;-4.87;100.00
32933;BME280;19444;50.518;10.870;2023-01-29T03:48:39;97580.88;;;-4.52;100.00
32933;BME280;19444;50.518;10.870;2023-01-29T03:51:52;97572.94;;;-4.80;100.00
32933;BME280;19444;50.518;10.870;2023-01-29T03:54:56;97567.09;;;-4.61;100.00
32933;BME280;19444;50.518;10.870;2023-01-29T03:58:03;97563.00;;;-4.70;100.00
32933;BME280;19444;50.518;10.870;2023-01-29T04:01:25;97566.09;;;-4.96;100.00
32933;BME280;19444;50.518;10.870;2023-01-29T04:04:35;97560.63;;;-5.16;100.00
32933;BME280;19444;50.518;10.870;2023-01-29T04:07:33;97559.63;;;-5.00;100.00
32933;BME280;19444;50.518;10.870;2023-01-29T04:10:32;97557.34;;;-4.88;100.00
32933;BME280;19444;50.518;10.870;2023-01-29T04:13:31;97553.63;;;-4.79;100.00
32933;BME280;19444;50.518;10.870;2023-01-29T04:16:36;97554.91;;;-4.75;100.00
32933;BME280;19444;50.518;10.870;2023-01-29T04:19:34;97547.69;;;-4.73;100.00
32933;BME280;19444;50.518;10.870;2023-01-29T04:22:34;97539.44;;;-4.70;100.00
32933;BME280;19444;50.518;10.870;2023-01-29T04:25:36;97538.97;;;-4.95;100.00
32933;BME280;19444;50.518;10.870;2023-01-29T04:29:06;97543.75;;;-4.62;100.00
32933;BME280;19444;50.518;10.870;2023-01-29T04:41:45;97520.56;;;-4.87;100.00
32933;BME280;19444;50.518;10.870;2023-01-29T04:45:00;97525.50;;;-4.77;100.00
32933;BME280;19444;50.518;10.870;2023-01-29T04:48:21;97523.47;;;-4.96;100.00
32933;BME280;19444;50.518;10.870;2023-01-29T04:51:30;97536.06;;;-4.85;100.00
32933;BME280;19444;50.518;10.870;2023-01-29T04:54:50;97532.53;;;-4.77;100.00
32933;BME280;19444;50.518;10.870;2023-01-29T04:58:05;97537.03;;;-4.71;100.00
32933;BME280;19444;50.518;10.870;2023-01-29T05:01:05;97530.56;;;-4.54;100.00
32933;BME280;19444;50.518;10.870;2023-01-29T05:04:06;97536.66;;;-4.68;100.00
32933;BME280;19444;50.518;10.870;2023-01-29T05:07:07;97532.59;;;-4.71;100.00
32933;BME280;19444;50.518;10.870;2023-01-29T05:10:07;97514.91;;;-4.69;100.00
32933;BME280;19444;50.518;10.870;2023-01-29T05:13:07;97522.84;;;-4.83;100.00
32933;BME280;19444;50.518;10.870;2023-01-29T05:16:18;97519.91;;;-4.52;100.00
32933;BME280;19444;50.518;10.870;2023-01-29T05:19:18;97523.19;;;-4.87;100.00
32933;BME280;19444;50.518;10.870;2023-01-29T05:22:16;97514.69;;;-4.74;100.00
32933;BME280;19444;50.518;10.870;2023-01-29T05:25:21;97519.59;;;-4.64;100.00
32933;BME280;19444;50.518;10.870;2023-01-29T05:28:19;97517.72;;;-4.70;100.00
32933;BME280;19444;50.518;10.870;2023-01-29T05:31:16;97515.09;;;-4.70;100.00
32933;BME280;19444;50.518;10.870;2023-01-29T05:34:13;97516.84;;;-4.77;100.00
32933;BME280;19444;50.518;10.870;2023-01-29T05:37:09;97514.22;;;-4.99;100.00
32933;BME280;19444;50.518;10.870;2023-01-29T05:40:07;97521.88;;;-4.76;100.00
32933;BME280;19444;50.518;10.870;2023-01-29T05:43:06;97511.16;;;-4.66;100.00
32933;BME280;19444;50.518;10.870;2023-01-29T05:46:09;97513.31;;;-4.70;100.00
32933;BME280;19444;50.518;10.870;2023-01-29T05:49:06;97521.06;;;-4.76;100.00
32933;BME280;19444;50.518;10.870;2023-01-29T05:52:03;97513.63;;;-4.94;100.00
32933;BME280;19444;50.518;10.870;2023-01-29T05:55:00;97522.19;;;-4.86;100.00
32933;BME280;19444;50.518;10.870;2023-01-29T05:57:57;97525.25;;;-4.82;100.00
32933;BME280;19444;50.518;10.870;2023-01-29T06:00:54;97523.03;;;-4.64;100.00
32933;BME280;19444;50.518;10.870;2023-01-29T06:03:50;97524.28;;;-4.96;100.00
32933;BME280;19444;50.518;10.870;2023-01-29T06:06:47;97506.69;;;-4.87;100.00
32933;BME280;19444;50.518;10.870;2023-01-29T06:09:44;97501.03;;;-4.91;100.00
32933;BME280;19444;50.518;10.870;2023-01-29T06:12:42;97503.16;;;-4.79;100.00
32933;BME280;19444;50.518;10.870;2023-01-29T06:15:39;97499.91;;;-4.81;100.00
32933;BME280;19444;50.518;10.870;2023-01-29T06:18:36;97501.41;;;-4.72;100.00
32933;BME280;19444;50.518;10.870;2023-01-29T06:21:33;97502.84;;;-4.70;100.00
32933;BME280;19444;50.518;10.870;2023-01-29T06:24:30;97499.09;;;-4.82;100.00
32933;BME280;19444;50.518;10.870;2023-01-29T06:27:28;97488.06;;;-4.77;100.00
32933;BME280;19444;50.518;10.870;2023-01-29T06:30:25;97497.22;;;-4.88;100.00
32933;BME280;19444;50.518;10.870;2023-01-29T06:33:24;97501.31;;;-5.00;100.00
32933;BME280;19444;50.518;10.870;2023-01-29T06:36:21;97513.81;;;-4.96;100.00
32933;BME280;19444;50.518;10.870;2023-01-29T06:39:17;97515.63;;;-4.96;100.00
32933;BME280;19444;50.518;10.870;2023-01-29T06:42:14;97506.56;;;-5.00;100.00
32933;BME280;19444;50.518;10.870;2023-01-29T06:45:11;97516.00;;;-4.99;100.00
32933;BME280;19444;50.518;10.870;2023-01-29T06:48:08;97511.69;;;-4.92;100.00
32933;BME280;19444;50.518;10.870;2023-01-29T06:51:06;97507.78;;;-4.96;100.00
32933;BME280;19444;50.518;10.870;2023-01-29T06:54:03;97507.56;;;-4.80;100.00
32933;BME280;19444;50.518;10.870;2023-01-29T06:57:00;97515.28;;;-4.93;100.00
32933;BME280;19444;50.518;10.870;2023-01-29T06:59:57;97519.31;;;-4.91;100.00
32933;BME280;19444;50.518;10.870;2023-01-29T07:02:53;97521.63;;;-5.02;100.00
32933;BME280;19444;50.518;10.870;2023-01-29T07:05:51;97512.25;;;-4.75;100.00
32933;BME280;19444;50.518;10.870;2023-01-29T07:08:48;97521.06;;;-4.76;100.00
32933;BME280;19444;50.518;10.870;2023-01-29T07:11:45;97524.94;;;-4.72;100.00
32933;BME280;19444;50.518;10.870;2023-01-29T07:14:42;97517.72;;;-4.70;100.00
32933;BME280;19444;50.518;10.870;2023-01-29T07:17:38;97523.16;;;-4.72;100.00
32933;BME280;19444;50.518;10.870;2023-01-29T07:20:35;97530.19;;;-4.72;100.00
32933;BME280;19444;50.518;10.870;2023-01-29T07:23:33;97537.72;;;-4.63;100.00
32933;BME280;19444;50.518;10.870;2023-01-29T07:26:30;97544.31;;;-4.67;100.00
32933;BME280;19444;50.518;10.870;2023-01-29T07:29:27;97525.69;;;-4.78;100.00
32933;BME280;19444;50.518;10.870;2023-01-29T07:32:23;97534.22;;;-4.70;100.00
32933;BME280;19444;50.518;10.870;2023-01-29T07:35:20;97530.00;;;-4.49;100.00
32933;BME280;19444;50.518;10.870;2023-01-29T07:38:17;97536.34;;;-4.59;100.00
32933;BME280;19444;50.518;10.870;2023-01-29T07:41:14;97536.75;;;-4.76;100.00
32933;BME280;19444;50.518;10.870;2023-01-29T07:44:11;97541.25;;;-4.92;100.00
32933;BME280;19444;50.518;10.870;2023-01-29T07:47:08;97548.56;;;-4.66;100.00
32933;BME280;19444;50.518;10.870;2023-01-29T07:50:05;97559.56;;;-4.70;100.00
32933;BME280;19444;50.518;10.870;2023-01-29T07:53:02;97562.75;;;-4.75;100.00
32933;BME280;19444;50.518;10.870;2023-01-29T07:55:59;97578.44;;;-4.39;100.00
32933;BME280;19444;50.518;10.870;2023-01-29T07:58:56;97577.53;;;-4.46;100.00
32933;BME280;19444;50.518;10.870;2023-01-29T08:01:53;97573.47;;;-4.48;100.00
32933;BME280;19444;50.518;10.870;2023-01-29T08:04:50;97572.06;;;-4.30;100.00
32933;BME280;19444;50.518;10.870;2023-01-29T08:07:51;97577.34;;;-4.66;100.00
32933;BME280;19444;50.518;10.870;2023-01-29T08:11:03;97568.56;;;-4.37;100.00
32933;BME280;19444;50.518;10.870;2023-01-29T08:14:01;97583.13;;;-4.49;100.00
32933;BME280;19444;50.518;10.870;2023-01-29T08:16:57;97584.19;;;-4.65;100.00
32933;BME280;19444;50.518;10.870;2023-01-29T08:19:54;97574.81;;;-4.74;100.00
32933;BME280;19444;50.518;10.870;2023-01-29T08:22:59;97585.56;;;-4.47;100.00
32933;BME280;19444;50.518;10.870;2023-01-29T08:25:56;97595.81;;;-4.67;100.00
32933;BME280;19444;50.518;10.870;2023-01-29T08:28:53;97568.63;;;-4.09;100.00
32933;BME280;19444;50.518;10.870;2023-01-29T08:31:50;97563.00;;;-4.06;100.00
32933;BME280;19444;50.518;10.870;2023-01-29T08:34:46;97553.97;;;-4.03;100.00
32933;BME280;19444;50.518;10.870;2023-01-29T08:37:46;97541.28;;;-4.27;100.00
32933;BME280;19444;50.518;10.870;2023-01-29T08:40:47;97539.22;;;-4.11;100.00
32933;BME280;19444;50.518;10.870;2023-01-29T08:43:45;97542.50;;;-4.02;100.00
32933;BME280;19444;50.518;10.870;2023-01-29T08:46:42;97539.09;;;-4.24;100.00
32933;BME280;19444;50.518;10.870;2023-01-29T08:49:39;97540.97;;;-4.18;100.00
32933;BME280;19444;50.518;10.870;2023-01-29T08:52:36;97525.88;;;-3.88;100.00
32933;BME280;19444;50.518;10.870;2023-01-29T08:55:40;97541.19;;;-3.57;100.00
32933;BME280;19444;50.518;10.870;2023-01-29T08:58:36;97554.53;;;-4.08;100.00
32933;BME280;19444;50.518;10.870;2023-01-29T09:01:33;97551.25;;;-3.88;100.00
32933;BME280;19444;50.518;10.870;2023-01-29T09:04:30;97543.34;;;-3.95;100.00
32933;BME280;19444;50.518;10.870;2023-01-29T09:07:28;97538.22;;;-3.82;100.00
32933;BME280;19444;50.518;10.870;2023-01-29T09:10:25;97548.38;;;-3.72;100.00
32933;BME280;19444;50.518;10.870;2023-01-29T09:13:22;97551.84;;;-3.93;100.00
32933;BME280;19444;50.518;10.870;2023-01-29T09:16:19;97568.06;;;-3.76;100.00
32933;BME280;19444;50.518;10.870;2023-01-29T09:19:16;97587.66;;;-3.93;100.00
32933;BME280;19444;50.518;10.870;2023-01-29T09:22:13;97614.09;;;-3.88;100.00
32933;BME280;19444;50.518;10.870;2023-01-29T09:25:10;97621.47;;;-3.98;100.00
32933;BME280;19444;50.518;10.870;2023-01-29T09:28:07;97637.88;;;-4.11;100.00
32933;BME280;19444;50.518;10.870;2023-01-29T09:31:03;97629.63;;;-3.87;100.00
32933;BME280;19444;50.518;10.870;2023-01-29T09:34:00;97607.69;;;-4.07;100.00
32933;BME280;19444;50.518;10.870;2023-01-29T09:36:57;97602.16;;;-4.19;100.00
32933;BME280;19444;50.518;10.870;2023-01-29T09:39:54;97576.09;;;-4.06;100.00
32933;BME280;19444;50.518;10.870;2023-01-29T09:42:55;97581.94;;;-3.82;100.00
32933;BME280;19444;50.518;10.870;2023-01-29T09:46:12;97577.66;;;-3.90;100.00
32933;BME280;19444;50.518;10.870;2023-01-29T09:49:23;97571.72;;;-3.98;100.00
32933;BME280;19444;50.518;10.870;2023-01-29T09:55:33;97551.63;;;-3.35;100.00
32933;BME280;19444;50.518;10.870;2023-01-29T09:58:37;97564.22;;;-3.52;100.00
32933;BME280;19444;50.518;10.870;2023-01-29T10:01:45;97562.03;;;-3.77;100.00
32933;BME280;19444;50.518;10.870;2023-01-29T10:04:50;97573.84;;;-3.59;100.00
32933;BME280;19444;50.518;10.870;2023-01-29T10:11:37;97565.28;;;-3.75;100.00
32933;BME280;19444;50.518;10.870;2023-01-29T10:21:57;97570.69;;;-3.48;100.00
32933;BME280;19444;50.518;10.870;2023-01-29T10:24:40;97544.00;;;-3.24;100.00
32933;BME280;19444;50.518;10.870;2023-01-29T10:27:47;97522.38;;;-3.32;100.00
32933;BME280;19444;50.518;10.870;2023-01-29T10:30:50;97511.94;;;-3.26;100.00
32933;BME280;19444;50.518;10.870;2023-01-29T10:33:52;97494.75;;;-2.80;100.00
32933;BME280;19444;50.518;10.870;2023-01-29T10:36:58;97496.38;;;-2.66;100.00
32933;BME280;19444;50.518;10.870;2023-01-29T10:39:57;97500.84;;;-2.60;100.00
32933;BME280;19444;50.518;10.870;2023-01-29T10:43:28;97493.59;;;-2.38;100.00
32933;BME280;19444;50.518;10.870;2023-01-29T10:46:52;97481.91;;;-2.42;100.00
32933;BME280;19444;50.518;10.870;2023-01-29T10:56:47;97471.75;;;-2.92;100.00
32933;BME280;19444;50.518;10.870;2023-01-29T11:03:16;97453.47;;;-3.26;100.00
32933;BME280;19444;50.518;10.870;2023-01-29T11:09:30;97458.44;;;-2.90;100.00
32933;BME280;19444;50.518;10.870;2023-01-29T11:12:29;97446.06;;;-3.09;100.00
32933;BME280;19444;50.518;10.870;2023-01-29T11:15:30;97458.88;;;-2.73;100.00
32933;BME280;19444;50.518;10.870;2023-01-29T11:18:28;97433.22;;;-2.91;100.00
32933;BME280;19444;50.518;10.870;2023-01-29T11:21:57;97427.97;;;-2.91;100.00
32933;BME280;19444;50.518;10.870;2023-01-29T11:25:16;97421.75;;;-2.64;100.00
32933;BME280;19444;50.518;10.870;2023-01-29T11:28:13;97417.69;;;-2.40;100.00
32933;BME280;19444;50.518;10.870;2023-01-29T11:31:36;97429.63;;;-2.64;100.00
32933;BME280;19444;50.518;10.870;2023-01-29T11:34:34;97417.09;;;-2.42;100.00
32933;BME280;19444;50.518;10.870;2023-01-29T11:37:51;97415.47;;;-2.43;100.00
32933;BME280;19444;50.518;10.870;2023-01-29T11:40:48;97412.47;;;-2.46;100.00
32933;BME280;19444;50.518;10.870;2023-01-29T11:43:45;97407.41;;;-2.81;100.00
32933;BME280;19444;50.518;10.870;2023-01-29T11:46:42;97399.91;;;-2.77;100.00
32933;BME280;19444;50.518;10.870;2023-01-29T11:49:43;97386.22;;;-2.53;100.00
32933;BME280;19444;50.518;10.870;2023-01-29T11:52:41;97375.09;;;-2.35;100.00
32933;BME280;19444;50.518;10.870;2023-01-29T11:55:39;97374.28;;;-2.75;100.00
32933;BME280;19444;50.518;10.870;2023-01-29T11:58:46;97374.25;;;-2.29;100.00
32933;BME280;19444;50.518;10.870;2023-01-29T12:01:44;97377.72;;;-2.42;100.00
32933;BME280;19444;50.518;10.870;2023-01-29T12:04:41;97369.25;;;-2.44;100.00
32933;BME280;19444;50.518;10.870;2023-01-29T12:07:40;97365.00;;;-2.58;100.00
32933;BME280;19444;50.518;10.870;2023-01-29T12:10:39;97364.84;;;-2.83;100.00
32933;BME280;19444;50.518;10.870;2023-01-29T12:13:37;97359.78;;;-2.71;100.00
32933;BME280;19444;50.518;10.870;2023-01-29T12:20:00;97336.47;;;-2.15;100.00
32933;BME280;19444;50.518;10.870;2023-01-29T12:23:03;97329.69;;;-2.49;100.00
32933;BME280;19444;50.518;10.870;2023-01-29T12:29:45;97318.75;;;-2.26;100.00
32933;BME280;19444;50.518;10.870;2023-01-29T12:32:57;97328.31;;;-2.65;100.00
32933;BME280;19444;50.518;10.870;2023-01-29T12:36:23;97328.06;;;-2.43;100.00
32933;BME280;19444;50.518;10.870;2023-01-29T12:39:22;97328.44;;;-2.33;100.00
32933;BME280;19444;50.518;10.870;2023-01-29T12:42:20;97334.31;;;-2.38;100.00
32933;BME280;19444;50.518;10.870;2023-01-29T12:45:20;97328.66;;;-2.35;100.00
32933;BME280;19444;50.518;10.870;2023-01-29T12:48:26;97320.59;;;-2.40;100.00
32933;BME280;19444;50.518;10.870;2023-01-29T12:51:30;97307.06;;;-2.37;100.00
32933;BME280;19444;50.518;10.870;2023-01-29T12:54:36;97300.44;;;-2.52;100.00
32933;BME280;19444;50.518;10.870;2023-01-29T12:58:03;97299.63;;;-2.66;100.00
32933;BME280;19444;50.518;10.870;2023-01-29T13:01:51;97292.72;;;-2.41;100.00
32933;BME280;19444;50.518;10.870;2023-01-29T13:04:45;97295.28;;;-2.21;100.00
32933;BME280;19444;50.518;10.870;2023-01-29T13:07:50;97290.75;;;-2.65;100.00
32933;BME280;19444;50.518;10.870;2023-01-29T13:10:50;97282.28;;;-2.54;100.00
32933;BME280;19444;50.518;10.870;2023-01-29T13:14:08;97277.13;;;-2.29;100.00
32933;BME280;19444;50.518;10.870;2023-01-29T13:17:18;97276.19;;;-2.48;100.00
32933;BME280;19444;50.518;10.870;2023-01-29T13:20:20;97272.25;;;-2.12;100.00
32933;BME280;19444;50.518;10.870;2023-01-29T13:23:33;97262.09;;;-2.53;100.00
32933;BME280;19444;50.518;10.870;2023-01-29T13:26:32;97267.72;;;-2.43;100.00
32933;BME280;19444;50.518;10.870;2023-01-29T13:29:30;97272.38;;;-2.52;100.00
32933;BME280;19444;50.518;10.870;2023-01-29T13:32:31;97263.69;;;-2.46;100.00
32933;BME280;19444;50.518;10.870;2023-01-29T13:35:29;97268.13;;;-2.60;100.00
32933;BME280;19444;50.518;10.870;2023-01-29T13:38:30;97266.69;;;-2.49;100.00
32933;BME280;19444;50.518;10.870;2023-01-29T13:41:40;97263.69;;;-2.52;100.00
32933;BME280;19444;50.518;10.870;2023-01-29T13:44:38;97275.78;;;-2.51;100.00
32933;BME280;19444;50.518;10.870;2023-01-29T13:47:36;97264.50;;;-2.45;100.00
32933;BME280;19444;50.518;10.870;2023-01-29T13:50:39;97270.34;;;-2.57;100.00
32933;BME280;19444;50.518;10.870;2023-01-29T13:53:39;97269.34;;;-2.55;100.00
32933;BME280;19444;50.518;10.870;2023-01-29T13:59:50;97260.84;;;-2.58;100.00
32933;BME280;19444;50.518;10.870;2023-01-29T14:08:50;97250.56;;;-2.46;100.00
32933;BME280;19444;50.518;10.870;2023-01-29T14:11:47;97251.59;;;-2.67;100.00
32933;BME280;19444;50.518;10.870;2023-01-29T14:24:16;97236.47;;;-2.71;100.00
32933;BME280;19444;50.518;10.870;2023-01-29T14:27:21;97228.03;;;-2.73;100.00
32933;BME280;19444;50.518;10.870;2023-01-29T14:30:20;97222.56;;;-2.85;100.00
32933;BME280;19444;50.518;10.870;2023-01-29T14:33:32;97231.88;;;-2.82;100.00
32933;BME280;19444;50.518;10.870;2023-01-29T14:36:40;97239.31;;;-2.73;100.00
32933;BME280;19444;50.518;10.870;2023-01-29T14:39:48;97219.75;;;-2.83;100.00
32933;BME280;19444;50.518;10.870;2023-01-29T14:53:19;97219.94;;;-2.78;100.00
32933;BME280;19444;50.518;10.870;2023-01-29T14:59:35;97212.06;;;-2.78;100.00
32933;BME280;19444;50.518;10.870;2023-01-29T15:02:39;97218.34;;;-2.93;100.00
32933;BME280;19444;50.518;10.870;2023-01-29T15:05:37;97224.00;;;-2.82;100.00
32933;BME280;19444;50.518;10.870;2023-01-29T15:08:40;97213.09;;;-2.86;100.00
32933;BME280;19444;50.518;10.870;2023-01-29T15:11:55;97215.53;;;-2.98;100.00
32933;BME280;19444;50.518;10.870;2023-01-29T15:18:36;97208.69;;;-3.12;100.00
32933;BME280;19444;50.518;10.870;2023-01-29T15:21:35;97212.34;;;-3.26;100.00
32933;BME280;19444;50.518;10.870;2023-01-29T15:24:32;97203.28;;;-3.10;100.00
32933;BME280;19444;50.518;10.870;2023-01-29T15:27:29;97196.38;;;-3.05;100.00
32933;BME280;19444;50.518;10.870;2023-01-29T15:30:31;97186.94;;;-3.19;100.00
32933;BME280;19444;50.518;10.870;2023-01-29T15:33:28;97186.31;;;-3.08;100.00
32933;BME280;19444;50.518;10.870;2023-01-29T15:36:27;97202.06;;;-3.28;100.00
32933;BME280;19444;50.518;10.870;2023-01-29T15:39:26;97196.59;;;-3.06;100.00
32933;BME280;19444;50.518;10.870;2023-01-29T15:42:25;97189.34;;;-3.24;100.00
32933;BME280;19444;50.518;10.870;2023-01-29T15:45:32;97183.09;;;-3.10;100.00
32933;BME280;19444;50.518;10.870;2023-01-29T15:48:35;97188.13;;;-3.22;100.00
32933;BME280;19444;50.518;10.870;2023-01-29T15:51:33;97192.59;;;-3.29;100.00
32933;BME280;19444;50.518;10.870;2023-01-29T15:54:31;97189.97;;;-3.29;100.00
32933;BME280;19444;50.518;10.870;2023-01-29T15:57:36;97188.97;;;-3.28;100.00
32933;BME280;19444;50.518;10.870;2023-01-29T16:00:36;97187.72;;;-3.38;100.00
32933;BME280;19444;50.518;10.870;2023-01-29T16:03:32;97181.50;;;-3.37;100.00
32933;BME280;19444;50.518;10.870;2023-01-29T16:06:35;97182.09;;;-3.42;100.00
32933;BME280;19444;50.518;10.870;2023-01-29T16:09:33;97190.78;;;-3.28;100.00
32933;BME280;19444;50.518;10.870;2023-01-29T16:12:31;97193.41;;;-3.28;100.00
32933;BME280;19444;50.518;10.870;2023-01-29T16:15:33;97191.97;;;-3.24;100.00
32933;BME280;19444;50.518;10.870;2023-01-29T16:18:32;97188.16;;;-3.41;100.00
32933;BME280;19444;50.518;10.870;2023-01-29T16:21:34;97200.44;;;-3.35;100.00
32933;BME280;19444;50.518;10.870;2023-01-29T16:24:34;97184.31;;;-3.26;100.00
32933;BME280;19444;50.518;10.870;2023-01-29T16:27:31;97199.44;;;-3.28;100.00
32933;BME280;19444;50.518;10.870;2023-01-29T16:30:29;97187.53;;;-3.30;100.00
32933;BME280;19444;50.518;10.870;2023-01-29T16:33:34;97182.91;;;-3.35;100.00
32933;BME280;19444;50.518;10.870;2023-01-29T16:36:31;97182.09;;;-3.42;100.00
32933;BME280;19444;50.518;10.870;2023-01-29T16:39:34;97179.88;;;-3.52;100.00
32933;BME280;19444;50.518;10.870;2023-01-29T16:42:33;97187.34;;;-3.55;100.00
32933;BME280;19444;50.518;10.870;2023-01-29T16:45:31;97186.16;;;-3.46;100.00
32933;BME280;19444;50.518;10.870;2023-01-29T16:48:33;97199.44;;;-3.48;100.00
32933;BME280;19444;50.518;10.870;2023-01-29T16:51:37;97200.03;;;-3.59;100.00
32933;BME280;19444;50.518;10.870;2023-01-29T16:54:34;97199.03;;;-3.58;100.00
32933;BME280;19444;50.518;10.870;2023-01-29T16:57:37;97198.81;;;-3.50;100.00
32933;BME280;19444;50.518;10.870;2023-01-29T17:00:34;97193.78;;;-3.51;100.00
32933;BME280;19444;50.518;10.870;2023-01-29T17:03:32;97202.25;;;-3.49;100.00
32933;BME280;19444;50.518;10.870;2023-01-29T17:06:30;97202.25;;;-3.49;100.00
32933;BME280;19444;50.518;10.870;2023-01-29T17:09:35;97197.41;;;-3.59;100.00
32933;BME280;19444;50.518;10.870;2023-01-29T17:12:33;97205.06;;;-3.57;100.00
32933;BME280;19444;50.518;10.870;2023-01-29T17:18:31;97213.75;;;-3.44;100.00
32933;BME280;19444;50.518;10.870;2023-01-29T17:21:28;97205.47;;;-3.40;100.00